Time;durP1;ratioP1;P1;durP2;ratioP2;P2;SDS_P1;SDS_P2;PMS_P1;PMS_P2;Temp;Humidity;BMP_temperature;BMP_pressure;BME280_temperature;BME280_humidity;BME280_pressure;Samples;Min_cycle;Max_cycle;Signal;HPM_P1;HPM_P2
2023/10/11 00:03:04;;;;;;;20.10;13.40;;;14.40;99.90;;;;;;5089714;28;20781;-84
2023/10/11 00:05:39;;;;;;;18.40;13.63;;;14.40;99.90;;;;;;5087622;28;20520;-85
2023/10/11 00:08:08;;;;;;;24.90;14.27;;;14.40;99.90;;;;;;5088330;28;20830;-84
2023/10/11 00:10:43;;;;;;;23.23;14.37;;;14.30;99.90;;;;;;5088286;28;20519;-84
2023/10/11 00:13:15;;;;;;;25.13;14.70;;;14.30;99.90;;;;;;5089220;28;20407;-84
2023/10/11 00:15:42;;;;;;;24.30;15.40;;;14.30;99.90;;;;;;5087421;28;20471;-79
2023/10/11 00:18:07;;;;;;;22.63;15.87;;;14.30;99.90;;;;;;5087539;28;20421;-79
2023/10/11 00:23:05;;;;;;;21.90;15.73;;;14.30;99.90;;;;;;5088891;28;20286;-79
2023/10/11 00:25:31;;;;;;;19.50;13.70;;;14.20;99.90;;;;;;5087558;28;21019;-79
2023/10/11 00:27:58;;;;;;;23.20;14.00;;;14.20;99.90;;;;;;5087426;28;20405;-79
2023/10/11 00:30:25;;;;;;;27.20;15.80;;;14.20;99.90;;;;;;5088329;28;20216;-79
2023/10/11 00:32:52;;;;;;;21.07;14.53;;;14.10;99.90;;;;;;5088962;28;20440;-79
2023/10/11 00:35:18;;;;;;;24.17;17.63;;;14.10;99.90;;;;;;5088533;28;20440;-84
2023/10/11 00:37:51;;;;;;;25.77;16.30;;;14.10;99.90;;;;;;5087424;28;20415;-79
2023/10/11 00:40:32;;;;;;;25.50;17.70;;;14.10;99.90;;;;;;5087090;28;20444;-79
2023/10/11 00:42:59;;;;;;;26.93;16.97;;;14.00;99.90;;;;;;5086581;28;20427;-79
2023/10/11 00:45:31;;;;;;;24.83;17.10;;;14.00;99.90;;;;;;5088325;28;20432;-80
2023/10/11 00:48:01;;;;;;;23.10;15.00;;;14.00;99.90;;;;;;5086026;28;20409;-85
2023/10/11 00:50:30;;;;;;;21.13;14.87;;;14.00;99.90;;;;;;5086597;28;20481;-84
2023/10/11 00:53:00;;;;;;;23.43;15.97;;;14.00;99.90;;;;;;5088541;28;20447;-79
2023/10/11 00:55:29;;;;;;;22.97;15.43;;;14.00;99.90;;;;;;5086667;28;20460;-79
2023/10/11 00:57:56;;;;;;;23.33;15.40;;;14.00;99.90;;;;;;5088484;28;20400;-84
2023/10/11 01:00:23;;;;;;;23.40;14.97;;;14.00;99.90;;;;;;5086585;28;20566;-84
2023/10/11 01:02:51;;;;;;;22.93;15.03;;;14.00;99.90;;;;;;5088555;28;20401;-84
2023/10/11 01:05:18;;;;;;;22.20;13.63;;;14.00;99.90;;;;;;5088295;28;20470;-85
2023/10/11 01:07:45;;;;;;;24.80;15.00;;;14.00;99.90;;;;;;5087129;28;20817;-79
2023/10/11 01:10:11;;;;;;;20.20;13.63;;;13.90;99.90;;;;;;5085893;28;20477;-84
2023/10/11 01:12:40;;;;;;;22.10;14.53;;;13.90;99.90;;;;;;5088047;28;20397;-79
2023/10/11 01:15:11;;;;;;;20.20;14.17;;;13.90;99.90;;;;;;5086235;28;20452;-84
2023/10/11 01:17:38;;;;;;;22.67;13.70;;;13.90;99.90;;;;;;5088326;28;20781;-79
2023/10/11 01:20:13;;;;;;;18.07;12.43;;;13.80;99.90;;;;;;5085934;28;20440;-83
2023/10/11 01:22:42;;;;;;;20.77;14.50;;;13.80;99.90;;;;;;5086536;28;20721;-79
2023/10/11 01:25:12;;;;;;;20.17;12.40;;;13.80;99.90;;;;;;5085890;28;20441;-84
2023/10/11 01:27:41;;;;;;;20.70;13.13;;;13.70;99.90;;;;;;5087877;28;20397;-84
2023/10/11 01:30:09;;;;;;;19.33;13.00;;;13.70;99.90;;;;;;5087247;28;20428;-84
2023/10/11 01:32:37;;;;;;;21.23;12.97;;;13.70;99.90;;;;;;5087953;28;20412;-84
2023/10/11 01:35:04;;;;;;;20.47;13.30;;;13.70;99.90;;;;;;5087262;28;20444;-84
2023/10/11 01:37:36;;;;;;;20.77;13.23;;;13.60;99.90;;;;;;5088085;28;20790;-79
2023/10/11 01:40:07;;;;;;;20.73;14.03;;;13.60;99.90;;;;;;5086738;28;20532;-84
2023/10/11 01:42:36;;;;;;;18.60;12.33;;;13.60;99.90;;;;;;5086014;28;20420;-79
2023/10/11 01:45:04;;;;;;;18.53;10.87;;;13.60;99.90;;;;;;5085738;28;20741;-79
2023/10/11 01:47:34;;;;;;;14.70;10.90;;;13.50;99.90;;;;;;5087623;28;20448;-79
2023/10/11 01:49:59;;;;;;;21.40;13.20;;;13.50;99.90;;;;;;5084843;28;20814;-84
2023/10/11 01:52:26;;;;;;;18.00;11.50;;;13.40;99.90;;;;;;5085796;28;20401;-79
2023/10/11 01:54:55;;;;;;;16.13;12.33;;;13.30;99.90;;;;;;5084823;28;20672;-83
2023/10/11 01:57:25;;;;;;;16.90;11.53;;;13.20;99.90;;;;;;5082956;28;20944;-83
2023/10/11 01:59:51;;;;;;;17.83;12.10;;;13.20;99.90;;;;;;5087090;28;20531;-79
2023/10/11 02:02:17;;;;;;;23.60;13.10;;;13.10;99.90;;;;;;5085351;28;20530;-83
2023/10/11 02:04:42;;;;;;;16.50;12.40;;;13.10;99.90;;;;;;5085918;28;20425;-83
2023/10/11 02:07:09;;;;;;;14.83;10.73;;;13.10;99.90;;;;;;5085116;28;20277;-83
2023/10/11 02:09:34;;;;;;;17.57;12.70;;;13.00;99.90;;;;;;5085399;28;20199;-78
2023/10/11 02:12:00;;;;;;;18.30;11.73;;;13.00;99.90;;;;;;5086438;28;20456;-83
2023/10/11 02:14:29;;;;;;;16.47;11.67;;;13.00;99.90;;;;;;5085629;28;20196;-78
2023/10/11 02:16:54;;;;;;;17.47;13.23;;;12.90;99.90;;;;;;5085143;28;20788;-83
2023/10/11 02:19:23;;;;;;;15.43;11.23;;;12.90;99.90;;;;;;5085463;28;20409;-83
2023/10/11 02:21:48;;;;;;;18.00;12.23;;;12.90;99.90;;;;;;5086045;28;20208;-78
2023/10/11 02:24:14;;;;;;;16.97;11.20;;;12.80;99.90;;;;;;5086771;28;20437;-78
2023/10/11 02:26:41;;;;;;;15.45;12.93;;;12.80;99.90;;;;;;5086896;28;20178;-78
2023/10/11 02:29:15;;;;;;;17.50;12.80;;;12.80;99.90;;;;;;5085285;28;20420;-78
2023/10/11 02:31:41;;;;;;;16.20;11.50;;;12.80;99.90;;;;;;5085237;28;20476;-83
2023/10/11 02:34:13;;;;;;;15.17;11.63;;;12.90;99.90;;;;;;5086515;28;20828;-78
2023/10/11 02:36:42;;;;;;;16.27;10.70;;;12.90;99.90;;;;;;5085063;28;21016;-82
2023/10/11 02:39:19;;;;;;;16.07;10.90;;;12.90;99.90;;;;;;5086109;28;20694;-79
2023/10/11 02:41:57;;;;;;;17.03;11.63;;;12.90;99.90;;;;;;5085000;28;20527;-83
2023/10/11 02:44:23;;;;;;;14.07;10.67;;;12.90;99.90;;;;;;5086734;28;20990;-79
2023/10/11 02:46:53;;;;;;;13.13;10.30;;;12.90;99.90;;;;;;5086128;28;20467;-84
2023/10/11 02:49:18;;;;;;;14.87;11.40;;;12.90;99.90;;;;;;5086459;28;20419;-79
2023/10/11 02:51:56;;;;;;;15.90;11.17;;;12.90;99.90;;;;;;5084775;28;20472;-78
2023/10/11 02:54:38;;;;;;;17.60;11.97;;;13.00;99.90;;;;;;5086499;28;20458;-78
2023/10/11 02:57:18;;;;;;;16.60;10.93;;;13.00;99.90;;;;;;5084236;28;20429;-78
2023/10/11 02:59:44;;;;;;;19.50;12.90;;;13.00;99.90;;;;;;5085875;28;20933;-82
2023/10/11 03:02:15;;;;;;;15.77;11.03;;;13.00;99.90;;;;;;5084447;28;20413;-78
2023/10/11 03:04:41;;;;;;;14.20;10.03;;;13.00;99.90;;;;;;5084981;28;20436;-78
2023/10/11 03:07:12;;;;;;;13.40;10.10;;;13.00;99.90;;;;;;5084103;28;20424;-82
2023/10/11 03:09:40;;;;;;;15.57;11.67;;;13.00;99.90;;;;;;5084869;28;20451;-83
2023/10/11 03:12:18;;;;;;;14.73;10.87;;;13.00;99.90;;;;;;5084296;28;20468;-78
2023/10/11 03:14:45;;;;;;;13.23;10.43;;;13.00;99.90;;;;;;5085099;28;20804;-78
2023/10/11 03:17:14;;;;;;;15.47;10.57;;;13.00;99.90;;;;;;5085839;28;20478;-78
2023/10/11 03:19:42;;;;;;;14.20;10.53;;;13.00;99.90;;;;;;5084753;28;20460;-78
2023/10/11 03:22:21;;;;;;;16.63;11.60;;;12.90;99.90;;;;;;5083719;28;20416;-83
2023/10/11 03:24:53;;;;;;;15.53;10.57;;;12.90;99.90;;;;;;5085921;28;20451;-83
2023/10/11 03:27:27;;;;;;;15.23;11.47;;;12.90;99.90;;;;;;5084265;28;20496;-84
2023/10/11 03:29:53;;;;;;;13.43;9.90;;;12.90;99.90;;;;;;5085948;28;20519;-84
2023/10/11 03:32:19;;;;;;;13.20;10.23;;;12.90;99.90;;;;;;5085590;28;20423;-82
2023/10/11 03:34:45;;;;;;;14.43;10.90;;;12.90;99.90;;;;;;5086122;28;20446;-83
2023/10/11 03:37:17;;;;;;;14.57;10.50;;;13.00;99.90;;;;;;5085643;28;20786;-78
2023/10/11 03:39:44;;;;;;;12.50;9.73;;;13.00;99.90;;;;;;5083376;28;20223;-79
2023/10/11 03:44:36;;;;;;;13.57;8.90;;;12.90;99.90;;;;;;5085667;28;20498;-78
2023/10/11 03:47:07;;;;;;;16.20;10.97;;;12.90;99.90;;;;;;5083874;28;20941;-78
2023/10/11 03:52:19;;;;;;;13.50;9.60;;;12.90;99.90;;;;;;5085275;28;20455;-78
2023/10/11 03:54:52;;;;;;;14.70;9.30;;;12.90;99.90;;;;;;5085607;28;20433;-78
2023/10/11 03:57:18;;;;;;;13.27;8.77;;;12.80;99.90;;;;;;5083635;28;20909;-78
2023/10/11 03:59:48;;;;;;;14.57;10.50;;;12.80;99.90;;;;;;5083758;28;20960;-83
2023/10/11 04:02:17;;;;;;;15.93;10.67;;;12.70;99.90;;;;;;5085176;28;20409;-78
2023/10/11 04:04:48;;;;;;;13.17;9.87;;;12.70;99.90;;;;;;5083901;28;20522;-83
2023/10/11 04:07:21;;;;;;;15.27;10.67;;;12.60;99.90;;;;;;5083634;28;20477;-78
2023/10/11 04:09:47;;;;;;;14.60;10.47;;;12.60;99.90;;;;;;5084124;28;21309;-78
2023/10/11 04:12:13;;;;;;;13.43;10.30;;;12.60;99.90;;;;;;5085092;28;20465;-78
2023/10/11 04:14:42;;;;;;;15.27;10.83;;;12.60;99.90;;;;;;5085205;28;20671;-84
2023/10/11 04:17:38;;;;;;;15.23;11.50;;;12.50;99.90;;;;;;5084768;28;20436;-78
2023/10/11 04:20:29;;;;;;;17.27;10.57;;;12.50;99.90;;;;;;5085488;28;20415;-83
2023/10/11 04:23:01;;;;;;;14.60;10.70;;;12.50;99.90;;;;;;5082206;28;20279;-84
2023/10/11 04:25:31;;;;;;;19.10;11.25;;;12.50;99.90;;;;;;5084771;28;21007;-83
2023/10/11 04:27:57;;;;;;;15.33;10.50;;;12.40;99.90;;;;;;5086284;28;20230;-80
2023/10/11 04:30:26;;;;;;;22.25;12.05;;;12.40;99.90;;;;;;5087242;28;20887;-81
2023/10/11 04:32:56;;;;;;;19.70;12.97;;;12.40;99.90;;;;;;5088552;28;20683;-80
2023/10/11 04:35:36;;;;;;;16.40;12.07;;;12.40;99.90;;;;;;5088605;28;20482;-85
2023/10/11 04:38:04;;;;;;;17.25;10.65;;;12.40;99.90;;;;;;5086817;28;20211;-85
2023/10/11 04:43:08;;;;;;;18.70;11.80;;;12.50;99.90;;;;;;5084357;28;20353;-85
2023/10/11 04:45:45;;;;;;;17.17;11.70;;;12.50;99.90;;;;;;5087684;28;20204;-80
2023/10/11 04:48:30;;;;;;;17.97;12.10;;;12.50;99.90;;;;;;5087784;28;20870;-85
2023/10/11 04:54:14;;;;;;;15.03;10.87;;;12.40;99.90;;;;;;5088133;28;20754;-85
2023/10/11 04:59:17;;;;;;;13.85;10.63;;;12.40;99.90;;;;;;5087582;28;20165;-85
2023/10/11 05:04:16;;;;;;;16.07;10.30;;;12.30;99.90;;;;;;5087954;28;20500;-80
2023/10/11 05:06:43;;;;;;;16.00;10.93;;;12.30;99.90;;;;;;5085509;28;20574;-80
2023/10/11 05:11:46;;;;;;;13.95;10.55;;;12.30;99.90;;;;;;5086764;28;20283;-85
2023/10/11 05:14:30;;;;;;;19.10;12.57;;;12.20;99.90;;;;;;5086519;28;20406;-83
2023/10/11 05:16:59;;;;;;;13.93;10.27;;;12.20;99.90;;;;;;5084259;28;20192;-78
2023/10/11 05:19:34;;;;;;;18.85;10.80;;;12.30;99.90;;;;;;5081947;28;20484;-84
2023/10/11 05:22:03;;;;;;;15.20;10.20;;;12.30;99.90;;;;;;5084372;28;20180;-84
2023/10/11 05:25:12;;;;;;;16.05;11.15;;;12.20;99.90;;;;;;5079962;28;20480;-84
2023/10/11 05:35:24;;;;;;;18.10;11.90;;;12.40;99.90;;;;;;5077360;28;20440;-78
2023/10/11 05:51:40;;;;;;;16.63;11.65;;;12.60;99.90;;;;;;5072062;28;20767;-79
2023/10/11 05:54:11;;;;;;;15.77;12.07;;;12.60;99.90;;;;;;5065594;28;20173;-78
2023/10/11 05:56:45;;;;;;;18.00;12.77;;;12.50;99.90;;;;;;5067968;28;20446;-79
2023/10/11 05:59:13;;;;;;;19.40;12.87;;;12.50;99.90;;;;;;5072289;28;20428;-84
2023/10/11 06:01:47;;;;;;;19.37;13.40;;;12.60;99.90;;;;;;5067621;28;20831;-83
2023/10/11 06:04:14;;;;;;;20.87;14.27;;;12.60;99.90;;;;;;5074847;28;20930;-83
2023/10/11 06:06:42;;;;;;;23.10;15.50;;;12.60;99.90;;;;;;5071562;28;20422;-79
2023/10/11 06:09:17;;;;;;;25.20;14.90;;;12.60;99.90;;;;;;5077552;28;20422;-84
2023/10/11 06:11:48;;;;;;;21.97;14.80;;;12.60;99.90;;;;;;5071467;28;20492;-79
2023/10/11 06:14:17;;;;;;;25.30;15.60;;;12.60;99.90;;;;;;5068960;28;20453;-84
2023/10/11 06:16:49;;;;;;;26.60;15.80;;;12.70;99.90;;;;;;5063659;28;20813;-78
2023/10/11 06:19:25;;;;;;;20.93;14.23;;;12.70;99.90;;;;;;5073620;28;20422;-84
2023/10/11 06:24:33;;;;;;;32.67;18.80;;;12.90;99.90;;;;;;5070650;28;20452;-78
2023/10/11 06:29:45;;;;;;;26.57;18.43;;;13.10;99.90;;;;;;5076253;28;20567;-78
2023/10/11 06:32:12;;;;;;;30.00;18.67;;;13.20;99.90;;;;;;5060233;28;21013;-84
2023/10/11 06:34:38;;;;;;;28.53;17.60;;;13.30;99.90;;;;;;5064118;28;20528;-83
2023/10/11 06:37:08;;;;;;;30.20;16.90;;;13.40;99.90;;;;;;5074073;28;20789;-84
2023/10/11 06:42:13;;;;;;;28.90;19.13;;;13.60;99.90;;;;;;5063593;28;20398;-78
2023/10/11 06:44:48;;;;;;;32.40;21.30;;;13.70;99.90;;;;;;5076510;28;20471;-83
2023/10/11 06:47:15;;;;;;;31.30;20.17;;;13.80;99.90;;;;;;5083280;28;20389;-84
2023/10/11 06:49:44;;;;;;;32.30;20.37;;;13.90;99.90;;;;;;5084110;28;20979;-79
2023/10/11 06:52:17;;;;;;;28.90;18.83;;;14.00;99.90;;;;;;5080945;28;20658;-78
2023/10/11 06:54:47;;;;;;;30.77;19.47;;;14.10;99.90;;;;;;5072458;28;20425;-84
2023/10/11 06:57:19;;;;;;;32.17;20.67;;;14.30;99.90;;;;;;5065952;28;20410;-79
2023/10/11 06:59:49;;;;;;;27.67;18.80;;;14.40;99.90;;;;;;5065578;28;20833;-84
2023/10/11 07:02:31;;;;;;;30.17;20.87;;;14.50;99.90;;;;;;5066176;28;20806;-84
2023/10/11 07:05:00;;;;;;;34.30;17.87;;;14.60;99.90;;;;;;5073576;28;20514;-79
2023/10/11 07:07:32;;;;;;;31.37;18.53;;;14.80;99.90;;;;;;5068700;28;20433;-84
2023/10/11 07:09:58;;;;;;;29.37;18.47;;;14.90;99.90;;;;;;5068112;28;20469;-83
2023/10/11 07:12:28;;;;;;;28.40;17.33;;;15.00;99.90;;;;;;5075839;28;20472;-84
2023/10/11 07:15:00;;;;;;;27.87;16.87;;;15.20;99.90;;;;;;5079113;28;20540;-78
2023/10/11 07:17:32;;;;;;;25.27;16.80;;;15.30;99.90;;;;;;5067317;28;20428;-83
2023/10/11 07:19:57;;;;;;;25.10;15.60;;;15.30;99.90;;;;;;5069110;28;20461;-79
2023/10/11 07:22:26;;;;;;;27.07;18.40;;;15.50;99.90;;;;;;5069839;28;20846;-79
2023/10/11 07:25:18;;;;;;;27.37;16.33;;;15.60;99.90;;;;;;5069623;28;20208;-83
2023/10/11 07:27:44;;;;;;;26.67;15.57;;;15.70;99.90;;;;;;5077818;28;20478;-79
2023/10/11 07:30:16;;;;;;;23.37;16.80;;;15.90;99.90;;;;;;5068877;28;20537;-84
2023/10/11 07:32:43;;;;;;;24.00;15.97;;;16.00;99.90;;;;;;5077649;28;20417;-83
2023/10/11 07:35:27;;;;;;;26.50;15.47;;;16.20;99.90;;;;;;5071311;28;20445;-80
2023/10/11 07:37:52;;;;;;;23.23;14.83;;;16.30;99.90;;;;;;5074190;28;20429;-79
2023/10/11 07:40:31;;;;;;;24.40;16.53;;;16.50;99.90;;;;;;5076821;28;20452;-83
2023/10/11 07:42:57;;;;;;;19.10;13.10;;;16.80;99.90;;;;;;5074635;28;20256;-79
2023/10/11 07:45:26;;;;;;;20.97;13.57;;;17.00;99.90;;;;;;5072992;28;20535;-80
2023/10/11 07:47:52;;;;;;;19.97;12.70;;;17.20;99.90;;;;;;5068063;28;20178;-80
2023/10/11 07:50:22;;;;;;;16.83;11.77;;;17.30;99.90;;;;;;5062372;28;20556;-84
2023/10/11 07:52:48;;;;;;;17.77;12.87;;;17.50;99.90;;;;;;5076601;28;20433;-79
2023/10/11 07:55:14;;;;;;;16.60;12.80;;;17.90;99.90;;;;;;5077849;28;20454;-83
2023/10/11 07:57:44;;;;;;;15.27;11.50;;;18.20;99.90;;;;;;5078946;28;20460;-83
2023/10/11 08:00:18;;;;;;;15.67;12.20;;;18.20;99.90;;;;;;5071533;28;20491;-83
2023/10/11 08:03:02;;;;;;;16.77;12.70;;;18.20;99.90;;;;;;5081686;28;20912;-83
2023/10/11 08:05:30;;;;;;;16.10;9.40;;;18.20;99.90;;;;;;5078394;28;20446;-84
2023/10/11 08:07:55;;;;;;;18.20;12.53;;;18.20;99.90;;;;;;5081703;28;20480;-79
2023/10/11 08:10:33;;;;;;;16.00;12.10;;;18.20;99.90;;;;;;5069554;28;20576;-79
2023/10/11 08:13:00;;;;;;;15.53;11.73;;;18.30;99.90;;;;;;5072372;28;20195;-79
2023/10/11 08:15:26;;;;;;;15.60;11.53;;;18.40;99.90;;;;;;5072207;28;20521;-83
2023/10/11 08:17:52;;;;;;;14.67;11.00;;;18.70;99.90;;;;;;5077053;28;21043;-83
2023/10/11 08:20:18;;;;;;;16.93;12.00;;;18.80;99.90;;;;;;5076690;28;20605;-83
2023/10/11 08:22:47;;;;;;;18.67;12.27;;;18.80;99.90;;;;;;5078158;28;20420;-80
2023/10/11 08:25:14;;;;;;;19.30;11.70;;;18.80;99.90;;;;;;5076500;28;20464;-84
2023/10/11 08:27:41;;;;;;;17.20;12.20;;;18.90;99.90;;;;;;5077034;28;20778;-84
2023/10/11 08:30:09;;;;;;;16.50;11.27;;;18.90;99.90;;;;;;5069354;28;20902;-79
2023/10/11 08:32:38;;;;;;;15.80;11.13;;;19.00;99.90;;;;;;5076575;28;20476;-84
2023/10/11 08:35:26;;;;;;;15.50;11.10;;;19.30;99.90;;;;;;5067914;28;20453;-80
2023/10/11 08:38:00;;;;;;;16.27;12.00;;;19.70;99.90;;;;;;5068228;28;20437;-84
2023/10/11 08:40:35;;;;;;;14.57;11.00;;;20.00;99.90;;;;;;5066575;28;20532;-80
2023/10/11 08:43:02;;;;;;;15.73;9.73;;;20.10;99.90;;;;;;5068570;28;20426;-79
2023/10/11 08:45:33;;;;;;;15.37;11.43;;;20.20;99.90;;;;;;5064772;28;20869;-84
2023/10/11 08:48:06;;;;;;;16.63;10.20;;;20.20;99.90;;;;;;5061152;28;20531;-79
2023/10/11 08:50:36;;;;;;;12.47;9.70;;;20.20;99.90;;;;;;5067878;28;20473;-80
2023/10/11 08:53:09;;;;;;;13.03;10.13;;;20.20;99.90;;;;;;5067320;28;20421;-84
2023/10/11 08:55:41;;;;;;;18.10;11.50;;;20.30;99.90;;;;;;5059757;28;20749;-84
2023/10/11 08:58:42;;;;;;;14.13;9.73;;;20.30;99.90;;;;;;5066204;28;20447;-84
2023/10/11 09:01:01;;;;;;;15.20;11.33;;;20.40;99.90;;;;;;5067662;28;20985;-84
2023/10/11 09:03:29;;;;;;;13.77;8.60;;;20.40;99.90;;;;;;5070474;28;20464;-83
2023/10/11 09:06:00;;;;;;;11.80;8.63;;;20.40;99.90;;;;;;5070947;28;20245;-83
2023/10/11 09:08:31;;;;;;;11.90;9.53;;;20.50;99.90;;;;;;5070754;28;20889;-78
2023/10/11 09:11:11;;;;;;;9.83;7.67;;;20.60;99.90;;;;;;5068867;28;20819;-83
2023/10/11 09:13:37;;;;;;;12.33;9.80;;;20.70;99.90;;;;;;5071922;28;20879;-83
2023/10/11 09:16:12;;;;;;;9.73;8.30;;;20.70;99.90;;;;;;5073265;28;20460;-79
2023/10/11 09:18:46;;;;;;;9.90;8.00;;;20.70;99.90;;;;;;5068462;28;20618;-79
2023/10/11 09:21:15;;;;;;;12.47;9.00;;;20.70;99.90;;;;;;5064156;28;20523;-83
2023/10/11 09:23:46;;;;;;;10.00;7.20;;;20.70;99.90;;;;;;5073468;28;20704;-83
2023/10/11 09:26:20;;;;;;;11.63;8.60;;;20.70;99.90;;;;;;5067727;28;20887;-83
2023/10/11 09:28:56;;;;;;;10.87;7.20;;;20.70;99.90;;;;;;5065083;28;22173;-79
2023/10/11 09:31:23;;;;;;;11.87;8.27;;;20.80;99.90;;;;;;5067566;28;20480;-79
2023/10/11 09:33:53;;;;;;;10.10;7.33;;;20.80;99.90;;;;;;5067291;28;20774;-83
2023/10/11 09:36:24;;;;;;;7.97;6.03;;;20.80;99.90;;;;;;5072419;28;20498;-79
2023/10/11 09:38:56;;;;;;;9.07;6.93;;;20.80;99.90;;;;;;5062428;28;20428;-79
2023/10/11 09:41:39;;;;;;;13.07;6.00;;;21.00;99.90;;;;;;5069795;28;20464;-80
2023/10/11 09:44:11;;;;;;;8.90;6.63;;;21.10;99.90;;;;;;5083250;28;20386;-83
2023/10/11 09:46:37;;;;;;;7.43;6.20;;;21.10;99.90;;;;;;5070247;28;20429;-84
2023/10/11 09:49:12;;;;;;;8.73;5.90;;;21.10;99.90;;;;;;5071428;28;20450;-83
2023/10/11 09:51:41;;;;;;;9.87;6.17;;;21.20;99.90;;;;;;5075293;28;20541;-83
2023/10/11 09:54:14;;;;;;;8.30;5.60;;;21.20;99.90;;;;;;5071546;28;20489;-79
2023/10/11 09:57:29;;;;;;;10.83;5.60;;;21.30;99.90;;;;;;5061085;28;20445;-79
2023/10/11 10:00:01;;;;;;;8.70;6.50;;;21.40;99.90;;;;;;5062251;28;20673;-80
2023/10/11 10:02:44;;;;;;;9.03;5.37;;;21.40;99.90;;;;;;5075551;28;20801;-80
2023/10/11 10:05:11;;;;;;;10.23;5.83;;;21.40;99.90;;;;;;5069415;28;20539;-83
2023/10/11 10:10:15;;;;;;;7.50;5.47;;;21.40;99.90;;;;;;5066197;28;20508;-84
2023/10/11 10:12:59;;;;;;;8.87;5.37;;;21.40;99.90;;;;;;5074381;28;20823;-84
2023/10/11 10:15:36;;;;;;;6.57;4.87;;;21.40;99.90;;;;;;5062561;28;20707;-79
2023/10/11 10:18:12;;;;;;;8.43;5.60;;;21.40;99.90;;;;;;5061877;28;20456;-84
2023/10/11 10:20:41;;;;;;;9.30;5.80;;;21.50;99.90;;;;;;5062650;28;20461;-79
2023/10/11 10:23:16;;;;;;;6.33;4.73;;;21.60;99.90;;;;;;5079026;28;20425;-83
2023/10/11 10:25:50;;;;;;;6.53;4.80;;;21.60;99.90;;;;;;5064386;28;20456;-79
2023/10/11 10:28:47;;;;;;;8.00;5.17;;;21.70;99.90;;;;;;5068539;28;20507;-83
2023/10/11 10:31:17;;;;;;;6.07;4.80;;;21.80;99.90;;;;;;5076209;28;21103;-79
2023/10/11 10:33:49;;;;;;;7.93;4.80;;;21.90;99.90;;;;;;5075423;28;20430;-79
2023/10/11 10:36:21;;;;;;;7.20;4.83;;;21.80;99.90;;;;;;5067026;28;20468;-86
2023/10/11 10:39:03;;;;;;;9.30;5.20;;;21.90;99.90;;;;;;5067313;28;20571;-80
2023/10/11 10:41:33;;;;;;;6.60;5.03;;;21.90;99.90;;;;;;5070103;28;20440;-82
2023/10/11 10:44:12;;;;;;;7.23;5.60;;;22.00;99.90;;;;;;5065524;28;21048;-83
2023/10/11 10:46:51;;;;;;;5.80;4.40;;;22.00;99.90;;;;;;5067581;28;20466;-80
2023/10/11 10:49:18;;;;;;;6.90;4.90;;;22.10;99.90;;;;;;5064249;28;20592;-83
2023/10/11 10:51:47;;;;;;;9.40;4.77;;;22.10;99.90;;;;;;5075561;28;20554;-80
2023/10/11 10:54:14;;;;;;;9.00;5.57;;;22.20;99.90;;;;;;5066876;28;20603;-82
2023/10/11 10:56:47;;;;;;;5.77;4.53;;;22.20;99.90;;;;;;5068895;28;20995;-84
2023/10/11 10:59:25;;;;;;;7.10;5.10;;;22.30;99.90;;;;;;5068388;28;20448;-82
2023/10/11 11:01:52;;;;;;;7.13;4.40;;;22.30;99.90;;;;;;5062783;28;20439;-79
2023/10/11 11:04:24;;;;;;;6.50;4.23;;;22.30;99.90;;;;;;5063321;28;20507;-80
2023/10/11 11:06:52;;;;;;;7.13;3.90;;;22.30;99.90;;;;;;5069321;28;20922;-80
2023/10/11 11:09:25;;;;;;;6.70;4.10;;;22.30;99.90;;;;;;5061791;28;20422;-82
2023/10/11 11:11:57;;;;;;;5.93;3.87;;;22.30;99.90;;;;;;5062842;28;20823;-79
2023/10/11 11:14:24;;;;;;;6.70;3.87;;;22.40;99.90;;;;;;5062393;28;20478;-79
2023/10/11 11:16:58;;;;;;;5.47;4.17;;;22.40;99.90;;;;;;5071834;28;21223;-79
2023/10/11 11:19:27;;;;;;;5.87;4.20;;;22.40;99.90;;;;;;5066010;28;20516;-79
2023/10/11 11:22:12;;;;;;;5.20;4.57;;;22.50;99.90;;;;;;5063095;28;20481;-80
2023/10/11 11:24:41;;;;;;;5.40;4.17;;;22.50;99.90;;;;;;5058488;28;20420;-79
2023/10/11 11:27:25;;;;;;;5.47;4.27;;;22.60;99.90;;;;;;5068045;28;20933;-80
2023/10/11 11:30:02;;;;;;;6.90;5.10;;;22.70;99.90;;;;;;5069207;28;20673;-83
2023/10/11 11:32:41;;;;;;;7.53;3.83;;;22.70;99.90;;;;;;5068414;28;20934;-82
2023/10/11 11:38:06;;;;;;;4.17;3.77;;;22.70;99.90;;;;;;5065186;28;20596;-82
2023/10/11 11:40:47;;;;;;;3.87;3.33;;;22.70;99.90;;;;;;5070460;28;20821;-79
2023/10/11 11:43:16;;;;;;;5.97;4.90;;;22.80;99.90;;;;;;5085628;28;20558;-79
2023/10/11 11:45:42;;;;;;;5.30;4.03;;;22.90;99.90;;;;;;5068429;28;20517;-79
2023/10/11 11:48:08;;;;;;;8.13;3.30;;;22.90;99.90;;;;;;5073614;28;20424;-79
2023/10/11 11:50:33;;;;;;;4.67;3.70;;;23.00;99.90;;;;;;5067172;28;20218;-79
2023/10/11 11:53:00;;;;;;;5.53;3.80;;;22.90;99.90;;;;;;5074731;28;20179;-79
2023/10/11 11:55:27;;;;;;;7.40;3.90;;;22.90;99.90;;;;;;5081417;28;20207;-79
2023/10/11 11:57:59;;;;;;;4.20;3.80;;;23.00;99.90;;;;;;5070264;28;20500;-82
2023/10/11 12:02:52;;;;;;;6.07;4.27;;;23.00;99.90;;;;;;5068670;28;20438;-78
2023/10/11 12:05:18;;;;;;;3.97;3.33;;;23.10;99.90;;;;;;5069730;28;20208;-83
2023/10/11 12:07:44;;;;;;;4.07;3.67;;;23.10;99.90;;;;;;5075254;28;20427;-79
2023/10/11 12:10:23;;;;;;;5.47;3.73;;;23.20;99.90;;;;;;5073877;28;20994;-79
2023/10/11 12:12:50;;;;;;;3.30;3.00;;;23.20;99.90;;;;;;5071838;28;20502;-79
2023/10/11 12:15:17;;;;;;;3.87;3.20;;;23.20;99.90;;;;;;5068527;28;20479;-79
2023/10/11 12:17:44;;;;;;;4.40;3.20;;;23.20;99.90;;;;;;5069689;28;20511;-79
2023/10/11 12:20:14;;;;;;;3.70;3.30;;;23.10;99.90;;;;;;5063796;28;20679;-83
2023/10/11 12:22:43;;;;;;;5.57;3.63;;;23.20;99.90;;;;;;5067220;28;20418;-79
2023/10/11 12:25:09;;;;;;;3.20;2.90;;;23.20;99.90;;;;;;5065338;28;20830;-80
2023/10/11 12:27:40;;;;;;;4.07;3.67;;;23.20;99.90;;;;;;5066065;28;20428;-79
2023/10/11 12:30:19;;;;;;;3.13;2.43;;;23.20;99.90;;;;;;5008471;27;21058;-82
2023/10/11 12:32:52;;;;;;;4.90;3.33;;;23.20;99.90;;;;;;5033431;28;20487;-79
2023/10/11 12:35:23;;;;;;;5.00;3.83;;;23.10;99.90;;;;;;5035620;28;20454;-79
2023/10/11 12:37:49;;;;;;;3.27;2.97;;;23.10;99.90;;;;;;5025396;28;20995;-83
2023/10/11 12:40:23;;;;;;;5.63;3.33;;;23.20;99.90;;;;;;5041323;28;20518;-79
2023/10/11 12:42:50;;;;;;;3.97;3.57;;;23.20;99.90;;;;;;5066471;28;20538;-79
2023/10/11 12:45:18;;;;;;;4.67;3.10;;;23.30;99.90;;;;;;5036608;28;20467;-79
2023/10/11 12:47:44;;;;;;;3.50;3.07;;;23.30;99.90;;;;;;5041201;28;20422;-82
2023/10/11 12:50:10;;;;;;;2.87;2.63;;;23.30;99.90;;;;;;5042776;28;20670;-79
2023/10/11 12:52:38;;;;;;;4.63;3.40;;;23.30;99.90;;;;;;5039350;28;20781;-82
2023/10/11 12:55:07;;;;;;;3.70;3.40;;;23.40;99.90;;;;;;5045635;28;20242;-79
2023/10/11 12:57:38;;;;;;;3.50;3.20;;;23.40;99.90;;;;;;5040856;28;20848;-83
2023/10/11 13:00:28;;;;;;;4.27;2.97;;;23.40;99.90;;;;;;5042058;28;20465;-83
2023/10/11 13:02:58;;;;;;;4.30;2.70;;;23.40;99.90;;;;;;5040261;28;20425;-83
2023/10/11 13:05:27;;;;;;;4.37;3.97;;;23.40;99.90;;;;;;5040707;28;20458;-81
2023/10/11 13:07:54;;;;;;;3.60;3.30;;;23.40;99.90;;;;;;5041384;28;20473;-79
2023/10/11 13:10:23;;;;;;;3.50;3.10;;;23.40;99.90;;;;;;5040237;28;20559;-79
2023/10/11 13:12:53;;;;;;;4.10;3.33;;;23.40;99.90;;;;;;5044157;28;20440;-83
2023/10/11 13:15:21;;;;;;;3.67;3.27;;;23.50;99.90;;;;;;5053203;28;20477;-83
2023/10/11 13:17:47;;;;;;;6.67;2.90;;;23.40;99.90;;;;;;5051921;28;20475;-79
2023/10/11 13:20:19;;;;;;;4.73;3.23;;;23.40;99.90;;;;;;5035270;28;21087;-79
2023/10/11 13:22:49;;;;;;;3.83;3.10;;;23.40;99.90;;;;;;5035455;28;20450;-79
2023/10/11 13:25:24;;;;;;;5.30;3.20;;;23.50;99.90;;;;;;5024016;28;20521;-82
2023/10/11 13:27:54;;;;;;;4.17;2.60;;;23.50;99.90;;;;;;5035448;28;20856;-82
2023/10/11 13:30:23;;;;;;;4.33;3.10;;;23.50;99.90;;;;;;5034799;28;20462;-82
2023/10/11 13:32:57;;;;;;;3.07;2.77;;;23.50;99.90;;;;;;5056958;28;20433;-79
2023/10/11 13:35:23;;;;;;;3.73;2.70;;;23.50;99.90;;;;;;5033526;28;20464;-79
2023/10/11 13:37:50;;;;;;;3.60;2.37;;;23.50;99.90;;;;;;5039272;28;20422;-83
2023/10/11 13:40:16;;;;;;;4.10;3.00;;;23.50;99.90;;;;;;5032065;28;20459;-78
2023/10/11 13:42:43;;;;;;;3.30;2.93;;;23.60;99.90;;;;;;5026497;28;20426;-82
2023/10/11 13:45:16;;;;;;;3.60;2.90;;;23.60;99.90;;;;;;5026360;28;20527;-79
2023/10/11 13:47:50;;;;;;;2.87;2.67;;;23.60;99.90;;;;;;5042240;28;20456;-83
2023/10/11 13:50:22;;;;;;;3.70;2.87;;;23.60;99.90;;;;;;5036367;28;20461;-84
2023/10/11 13:52:53;;;;;;;4.63;2.90;;;23.50;99.90;;;;;;5029285;28;20437;-79